Time;durP1;ratioP1;P1;durP2;ratioP2;P2;SDS_P1;SDS_P2;PMS_P1;PMS_P2;Temp;Humidity;BMP_temperature;BMP_pressure;BME280_temperature;BME280_humidity;BME280_pressure;Samples;Min_cycle;Max_cycle;Signal;HPM_P1;HPM_P2
2021/05/27 00:01:28;;;;;;;3.45;0.88;;;;;;;11.95;50.54;96505.91;127536;1101;23007;-79
2021/05/27 00:03:57;;;;;;;2.43;1.25;;;;;;;11.96;50.67;96504.83;127568;1100;22771;-79
2021/05/27 00:06:27;;;;;;;1.13;1.00;;;;;;;11.95;51.02;96505.91;127520;1101;22916;-79
2021/05/27 00:08:57;;;;;;;2.17;1.03;;;;;;;11.95;51.03;96511.22;127548;1100;22746;-80
2021/05/27 00:11:27;;;;;;;1.33;0.90;;;;;;;11.91;51.70;96513.67;127609;1095;26225;-78
2021/05/27 00:13:57;;;;;;;3.13;0.80;;;;;;;12.03;51.93;96503.40;127570;1101;24130;-79
2021/05/27 00:16:27;;;;;;;2.10;0.83;;;;;;;12.12;51.75;96509.64;127544;1101;22784;-79
2021/05/27 00:18:57;;;;;;;1.93;0.63;;;;;;;12.27;51.58;96513.92;127538;1100;22750;-79
2021/05/27 00:21:26;;;;;;;0.88;0.80;;;;;;;12.35;51.01;96515.11;127540;1101;22779;-79
2021/05/27 00:23:57;;;;;;;2.18;0.98;;;;;;;12.49;50.57;96511.41;127540;1101;22774;-79
2021/05/27 00:26:27;;;;;;;2.50;1.00;;;;;;;12.56;50.47;96516.36;127502;1101;22906;-79
2021/05/27 00:28:57;;;;;;;1.38;0.70;;;;;;;12.54;50.40;96515.87;127549;1100;22750;-80
2021/05/27 00:31:26;;;;;;;3.23;0.80;;;;;;;12.60;50.24;96508.58;127516;1095;26356;-80
2021/05/27 00:33:56;;;;;;;1.70;0.73;;;;;;;12.62;50.30;96520.49;127521;1096;23845;-80
2021/05/27 00:36:26;;;;;;;1.63;0.90;;;;;;;12.51;50.54;96512.98;127602;1100;23659;-80
2021/05/27 00:38:56;;;;;;;2.17;1.10;;;;;;;12.58;50.09;96524.04;127528;1100;22774;-80
2021/05/27 00:41:26;;;;;;;2.67;0.87;;;;;;;12.51;50.52;96523.62;127535;1096;29143;-80
2021/05/27 00:43:55;;;;;;;1.25;0.90;;;;;;;12.48;50.64;96519.67;127524;1094;26213;-80
2021/05/27 00:46:25;;;;;;;2.77;0.93;;;;;;;12.43;50.46;96528.54;127560;1101;23496;-78
2021/05/27 00:48:59;;;;;;;1.88;0.98;;;;;;;12.33;50.83;96518.06;127552;1101;22757;-79
2021/05/27 00:51:30;;;;;;;2.70;1.03;;;;;;;12.11;51.26;96525.88;127532;1101;22778;-79
2021/05/27 00:54:00;;;;;;;2.25;0.90;;;;;;;11.88;52.05;96524.88;127534;1101;22777;-79
2021/05/27 00:56:30;;;;;;;1.33;0.80;;;;;;;11.69;51.96;96534.70;127541;1100;22750;-79
2021/05/27 00:59:00;;;;;;;2.85;1.20;;;;;;;11.54;52.51;96540.97;127509;1100;22770;-79
2021/05/27 01:01:30;;;;;;;2.93;1.35;;;;;;;11.40;53.37;96537.44;127524;1101;22814;-80
2021/05/27 01:04:00;;;;;;;2.00;0.73;;;;;;;11.34;53.48;96538.59;127518;1100;22763;-80
2021/05/27 01:06:30;;;;;;;1.88;0.85;;;;;;;11.37;53.48;96538.02;127519;1100;22812;-78
2021/05/27 01:09:03;;;;;;;3.38;1.30;;;;;;;11.50;53.52;96534.66;127501;1100;22753;-79
2021/05/27 01:11:35;;;;;;;2.23;0.80;;;;;;;11.64;53.37;96532.09;127538;1095;25839;-79
2021/05/27 01:15:25;;;;;;;1.70;1.10;;;;;;;11.71;53.15;96535.98;127531;1095;25855;-79
2021/05/27 01:17:07;;;;;;;4.23;0.80;;;;;;;11.79;53.20;96530.05;127521;1095;22768;-79
2021/05/27 01:19:37;;;;;;;3.87;0.93;;;;;;;11.89;52.90;96534.43;127532;1100;22753;-79
2021/05/27 01:22:07;;;;;;;0.90;0.60;;;;;;;11.92;52.86;96531.19;127514;1101;22813;-79
2021/05/27 01:24:37;;;;;;;3.13;1.00;;;;;;;12.02;52.64;96538.23;127505;1100;22661;-79
2021/05/27 01:27:07;;;;;;;0.75;0.68;;;;;;;12.03;52.72;96545.13;127522;1100;24453;-79
2021/05/27 01:29:36;;;;;;;;;;;;;;;11.95;52.67;96538.58;127533;1101;22773;-79
2021/05/27 01:32:07;;;;;;;2.20;0.70;;;;;;;11.88;53.00;96541.61;127538;1101;21459;-79
2021/05/27 01:34:37;;;;;;;1.80;0.85;;;;;;;11.84;53.16;96529.20;127524;1100;22655;-80
2021/05/27 01:37:07;;;;;;;1.53;0.87;;;;;;;11.76;53.50;96535.91;127548;1100;24407;-80
2021/05/27 01:39:36;;;;;;;2.37;1.03;;;;;;;11.63;54.03;96544.58;127542;1100;22763;-79
2021/05/27 01:42:07;;;;;;;1.73;0.87;;;;;;;11.57;54.25;96543.08;127589;1100;25162;-80
2021/05/27 01:44:37;;;;;;;3.30;1.20;;;;;;;11.50;54.05;96538.11;127612;1100;23697;-78
2021/05/27 01:47:07;;;;;;;3.38;1.23;;;;;;;11.47;54.36;96541.34;127646;1101;23876;-78
2021/05/27 01:49:41;;;;;;;4.38;1.08;;;;;;;11.44;54.55;96541.13;127602;1100;22649;-78
2021/05/27 01:52:11;;;;;;;3.30;1.00;;;;;;;11.44;54.56;96538.47;127555;1101;23435;-78
2021/05/27 01:54:41;;;;;;;4.35;1.15;;;;;;;11.44;54.72;96533.95;127553;1101;22818;-79
2021/05/27 01:57:10;;;;;;;1.63;0.90;;;;;;;11.44;54.87;96535.81;127538;1101;22833;-79
2021/05/27 01:59:40;;;;;;;2.00;1.10;;;;;;;11.45;54.49;96543.49;127517;1100;34902;-79
2021/05/27 02:02:10;;;;;;;3.27;1.20;;;;;;;11.47;54.67;96543.20;127882;1101;22773;-80
2021/05/27 02:04:40;;;;;;;3.28;1.38;;;;;;;11.48;55.08;96534.16;127518;1100;22738;-79
2021/05/27 02:07:13;;;;;;;1.53;0.93;;;;;;;11.47;55.13;96538.69;127584;1100;22874;-79
2021/05/27 02:09:43;;;;;;;2.18;0.80;;;;;;;11.45;55.57;96540.84;127530;1101;22769;-79
2021/05/27 02:12:13;;;;;;;3.00;0.88;;;;;;;11.44;55.43;96541.13;127571;1100;22779;-79
2021/05/27 02:14:43;;;;;;;4.27;0.90;;;;;;;11.44;55.35;96543.78;127535;1100;22763;-79
2021/05/27 02:17:12;;;;;;;3.27;0.90;;;;;;;11.48;55.43;96542.13;127534;1101;22929;-79
2021/05/27 02:19:42;;;;;;;1.00;0.65;;;;;;;11.55;55.16;96537.27;127607;1101;22782;-79
2021/05/27 02:22:12;;;;;;;1.23;0.80;;;;;;;11.67;55.08;96547.45;127534;1100;22745;-79
2021/05/27 02:24:42;;;;;;;3.87;1.00;;;;;;;11.76;54.55;96545.73;127533;1094;26226;-80
2021/05/27 02:27:12;;;;;;;2.10;0.70;;;;;;;11.82;54.22;96545.42;127662;1095;26187;-79
2021/05/27 02:29:42;;;;;;;1.85;0.95;;;;;;;11.89;54.16;96547.71;127506;1101;26905;-80
2021/05/27 02:32:11;;;;;;;1.97;0.90;;;;;;;11.96;54.11;96548.13;127545;1100;22781;-79
2021/05/27 02:34:42;;;;;;;1.83;0.83;;;;;;;11.97;53.89;96547.08;127514;1100;23435;-79
2021/05/27 02:37:12;;;;;;;5.90;0.87;;;;;;;11.98;54.05;96547.86;127588;1101;23748;-79
2021/05/27 02:39:42;;;;;;;2.50;0.80;;;;;;;12.05;53.94;96551.72;127532;1100;22825;-79
2021/05/27 02:42:12;;;;;;;0.60;0.60;;;;;;;12.08;53.88;96545.82;127534;1100;24516;-79
2021/05/27 02:44:42;;;;;;;4.55;1.23;;;;;;;12.14;53.71;96550.00;127545;1096;26251;-79
2021/05/27 02:47:11;;;;;;;2.00;0.88;;;;;;;12.19;53.38;96538.49;127519;1101;23596;-79
2021/05/27 02:49:41;;;;;;;1.37;0.77;;;;;;;12.26;53.34;96538.14;127510;1101;22763;-79
2021/05/27 02:52:11;;;;;;;2.60;0.80;;;;;;;12.29;53.29;96538.34;127568;1101;22779;-78
2021/05/27 02:54:41;;;;;;;1.48;0.50;;;;;;;12.42;52.73;96537.59;129820;1101;30538;-80
2021/05/27 02:57:11;;;;;;;1.08;0.63;;;;;;;12.48;52.65;96538.28;128000;1101;26208;-80
2021/05/27 02:59:41;;;;;;;1.78;0.70;;;;;;;12.56;52.40;96531.53;129848;1100;22629;-79
2021/05/27 03:02:11;;;;;;;3.35;0.93;;;;;;;12.64;52.39;96538.81;129382;1100;22759;-79
2021/05/27 03:04:42;;;;;;;1.80;0.60;;;;;;;12.70;51.99;96537.66;127517;1101;22760;-79
2021/05/27 03:07:12;;;;;;;2.95;1.08;;;;;;;12.68;52.40;96537.95;127524;1097;22783;-79
2021/05/27 03:09:41;;;;;;;1.53;0.75;;;;;;;12.64;52.15;96534.28;127559;1101;22828;-80
2021/05/27 03:12:12;;;;;;;5.43;1.10;;;;;;;12.55;52.60;96538.72;127715;1101;22760;-80
2021/05/27 03:14:42;;;;;;;3.05;0.88;;;;;;;12.46;52.65;96543.11;127527;1101;22823;-81
2021/05/27 03:17:12;;;;;;;2.45;0.88;;;;;;;12.39;52.75;96538.19;127553;1101;24685;-79
2021/05/27 03:19:41;;;;;;;1.45;0.80;;;;;;;12.40;53.01;96544.29;127526;1101;24105;-79
2021/05/27 03:22:11;;;;;;;1.20;0.70;;;;;;;12.36;53.18;96541.40;127520;1101;25651;-79
2021/05/27 03:24:41;;;;;;;1.05;0.70;;;;;;;12.34;53.25;96540.12;127519;1101;23207;-79
2021/05/27 03:27:11;;;;;;;1.13;0.60;;;;;;;12.35;53.07;96545.14;127511;1101;22779;-79
2021/05/27 03:29:41;;;;;;;2.10;1.03;;;;;;;12.41;53.10;96545.87;127580;1097;24229;-80
2021/05/27 03:32:11;;;;;;;1.90;0.70;;;;;;;12.43;53.31;96546.36;127337;1101;22793;-79
2021/05/27 03:34:41;;;;;;;2.93;0.83;;;;;;;12.49;52.83;96553.95;127536;1101;23644;-80
2021/05/27 03:37:11;;;;;;;3.08;0.68;;;;;;;12.61;52.64;96553.49;127637;1101;22934;-80
2021/05/27 03:40:09;;;;;;;2.08;0.68;;;;;;;12.68;52.87;96550.47;127522;1096;22849;-78
2021/05/27 03:42:31;;;;;;;1.63;0.80;;;;;;;12.61;53.08;96548.17;127497;1101;22755;-79
2021/05/27 03:45:03;;;;;;;2.43;0.80;;;;;;;12.59;53.19;96553.00;127514;1101;24361;-80
2021/05/27 03:47:34;;;;;;;1.57;0.70;;;;;;;12.65;53.05;96556.34;127568;1101;23779;-80
2021/05/27 03:50:05;;;;;;;1.20;0.83;;;;;;;12.70;53.07;96564.26;127581;1101;22822;-79
2021/05/27 03:52:36;;;;;;;1.45;0.80;;;;;;;12.71;53.08;96563.17;127600;1101;22780;-79
2021/05/27 03:55:09;;;;;;;3.10;1.23;;;;;;;12.72;53.33;96567.41;127568;1101;22760;-79
2021/05/27 03:57:39;;;;;;;1.03;0.60;;;;;;;12.72;52.87;96562.88;127578;1096;26291;-79
2021/05/27 04:03:03;;;;;;;1.65;0.60;;;;;;;12.75;53.17;96556.97;127559;1100;24357;-79
2021/05/27 04:08:23;;;;;;;1.25;0.63;;;;;;;12.77;52.83;96568.10;127518;1101;22760;-79
2021/05/27 04:10:53;;;;;;;1.48;0.58;;;;;;;12.77;52.45;96559.33;127532;1101;22788;-79
2021/05/27 04:13:23;;;;;;;1.77;0.90;;;;;;;12.82;52.50;96572.56;127527;1101;22778;-79
2021/05/27 04:15:53;;;;;;;0.65;0.60;;;;;;;12.84;52.37;96575.72;127515;1101;23737;-79
2021/05/27 04:18:23;;;;;;;1.70;0.80;;;;;;;12.84;52.63;96575.72;127494;1101;32510;-79
2021/05/27 04:20:55;;;;;;;2.07;0.60;;;;;;;12.81;53.04;96576.31;127559;1101;22760;-79
2021/05/27 04:23:36;;;;;;;1.75;1.00;;;;;;;12.81;52.97;96570.98;127520;1101;23724;-79
2021/05/27 04:26:08;;;;;;;2.45;1.00;;;;;;;12.83;53.27;96574.14;127506;1096;22753;-79
2021/05/27 04:28:39;;;;;;;1.10;0.75;;;;;;;12.85;53.07;96569.31;127519;1096;27240;-79
2021/05/27 04:31:11;;;;;;;1.23;0.70;;;;;;;12.88;53.32;96573.25;127520;1101;22760;-79
2021/05/27 04:33:54;;;;;;;3.03;0.80;;;;;;;12.92;54.22;96579.56;127514;1096;28320;-79
2021/05/27 04:36:24;;;;;;;1.55;0.70;;;;;;;12.90;53.99;96577.19;127514;1101;22898;-79
2021/05/27 04:38:54;;;;;;;2.53;0.65;;;;;;;12.90;54.08;96568.42;127475;1101;23625;-79
2021/05/27 04:41:24;;;;;;;3.38;1.10;;;;;;;12.89;54.81;96575.62;127550;1096;27215;-79
2021/05/27 04:43:54;;;;;;;2.30;0.90;;;;;;;12.88;53.46;96568.72;127485;1100;22929;-79
2021/05/27 04:46:25;;;;;;;2.38;1.08;;;;;;;12.99;54.85;96578.11;127539;1101;22756;-79
2021/05/27 04:48:55;;;;;;;2.10;1.08;;;;;;;12.94;55.15;96575.52;127544;1100;24342;-79
2021/05/27 04:51:25;;;;;;;2.73;1.13;;;;;;;12.94;55.08;96575.52;127552;1095;24387;-78
2021/05/27 04:53:55;;;;;;;2.80;1.08;;;;;;;12.97;55.00;96574.95;127506;1100;22815;-79
2021/05/27 04:56:25;;;;;;;4.40;1.90;;;;;;;13.03;55.15;96583.62;127555;1101;22774;-79
2021/05/27 04:58:55;;;;;;;1.90;1.30;;;;;;;13.05;55.15;96581.45;127559;1101;22846;-78
2021/05/27 05:01:26;;;;;;;2.55;1.00;;;;;;;13.09;55.56;96587.78;127507;1101;22888;-79
2021/05/27 05:03:56;;;;;;;4.48;1.53;;;;;;;13.15;55.64;96581.27;127513;1095;25899;-79
2021/05/27 05:06:26;;;;;;;4.45;1.15;;;;;;;13.18;55.63;96582.55;127540;1101;23540;-79
2021/05/27 05:08:57;;;;;;;5.13;1.40;;;;;;;13.18;55.80;96579.89;127553;1101;22756;-79
2021/05/27 05:11:27;;;;;;;2.73;1.05;;;;;;;13.20;55.71;96577.75;127529;1101;22816;-79
2021/05/27 05:13:57;;;;;;;2.73;1.23;;;;;;;13.22;55.83;96580.90;127503;1100;41016;-79
2021/05/27 05:16:26;;;;;;;;;;;;;;;13.24;55.60;96579.55;127575;1100;22918;-79
2021/05/27 05:18:57;;;;;;;3.45;1.30;;;;;;;13.26;55.65;96576.58;127539;1101;21468;-79
2021/05/27 05:21:26;;;;;;;2.08;1.18;;;;;;;13.28;55.79;96579.73;127521;1101;22759;-79
2021/05/27 05:23:56;;;;;;;2.40;1.23;;;;;;;13.32;55.94;96580.70;127574;1095;26223;-79
2021/05/27 05:26:26;;;;;;;4.17;1.23;;;;;;;13.37;56.07;96575.27;127550;1101;22813;-78
2021/05/27 05:28:56;;;;;;;3.60;1.38;;;;;;;13.47;56.28;96577.75;127542;1101;22735;-79
2021/05/27 05:31:26;;;;;;;3.65;1.25;;;;;;;13.57;56.87;96571.43;127503;1101;22780;-79
2021/05/27 05:33:56;;;;;;;1.88;1.13;;;;;;;13.68;56.28;96569.36;127504;1101;25537;-79
2021/05/27 05:36:26;;;;;;;4.28;1.38;;;;;;;13.75;56.83;96569.72;127538;1100;23057;-79
2021/05/27 05:38:56;;;;;;;2.48;1.25;;;;;;;13.79;56.24;96566.15;127544;1101;22777;-78
2021/05/27 05:41:26;;;;;;;2.23;1.30;;;;;;;13.79;56.38;96558.16;127494;1096;22769;-78
2021/05/27 05:43:56;;;;;;;2.55;1.33;;;;;;;13.86;56.48;96563.88;127567;1100;24440;-80
2021/05/27 05:46:26;;;;;;;1.20;1.10;;;;;;;13.87;56.04;96560.13;127524;1101;22753;-79
2021/05/27 05:48:55;;;;;;;2.83;1.10;;;;;;;13.90;56.13;96553.41;127566;1101;22781;-78
2021/05/27 05:51:25;;;;;;;2.60;0.90;;;;;;;13.96;55.44;96562.88;127567;1101;22754;-79
2021/05/27 05:53:55;;;;;;;3.30;1.13;;;;;;;13.97;55.47;96559.13;127545;1101;22787;-78
2021/05/27 05:56:25;;;;;;;3.28;0.80;;;;;;;14.05;55.69;96569.05;127539;1101;23666;-78
2021/05/27 05:58:55;;;;;;;2.90;0.70;;;;;;;14.12;55.57;96572.11;127537;1101;22753;-78
2021/05/27 06:01:25;;;;;;;3.73;1.00;;;;;;;14.14;55.91;96569.92;127550;1101;22736;-79
2021/05/27 06:03:55;;;;;;;0.88;0.80;;;;;;;14.15;55.37;96576.83;127554;1100;22804;-79
2021/05/27 06:06:25;;;;;;;2.98;0.95;;;;;;;14.28;54.84;96587.75;127548;1100;25798;-80
2021/05/27 06:08:56;;;;;;;1.98;1.00;;;;;;;14.43;54.90;96585.52;127546;1101;22756;-80
2021/05/27 06:11:27;;;;;;;4.10;1.20;;;;;;;14.58;55.04;96568.38;127436;1101;27100;-81
2021/05/27 06:13:56;;;;;;;3.10;1.20;;;;;;;14.82;54.66;96571.52;127669;1097;22928;-79
2021/05/27 06:16:26;;;;;;;3.10;0.98;;;;;;;14.97;54.39;96561.54;127369;1100;27580;-80
2021/05/27 06:18:57;;;;;;;4.25;1.40;;;;;;;15.11;54.27;96565.69;127472;1101;22926;-79
2021/05/27 06:21:28;;;;;;;2.68;1.08;;;;;;;15.17;53.88;96563.66;127493;1101;22778;-79
2021/05/27 06:23:57;;;;;;;4.75;1.10;;;;;;;15.26;53.88;96567.16;127522;1100;22750;-80
2021/05/27 06:26:26;;;;;;;2.05;0.78;;;;;;;15.23;52.21;96565.11;127505;1101;42608;-80
2021/05/27 06:28:55;;;;;;;2.65;0.70;;;;;;;15.17;51.95;96562.88;127543;1101;22761;-79
2021/05/27 06:31:23;;;;;;;1.45;0.60;;;;;;;15.15;50.96;96561.30;127533;1096;27193;-79
2021/05/27 06:33:52;;;;;;;2.00;0.90;;;;;;;15.26;51.82;96561.03;127585;1100;22815;-79
2021/05/27 06:36:21;;;;;;;0.68;0.60;;;;;;;15.31;51.63;96561.67;127534;1101;22768;-80
2021/05/27 06:38:50;;;;;;;4.53;0.75;;;;;;;15.40;51.27;96567.84;127523;1101;22780;-79
2021/05/27 06:41:19;;;;;;;1.40;0.70;;;;;;;15.63;50.62;96559.77;127573;1101;22819;-79
2021/05/27 06:43:49;;;;;;;3.13;0.90;;;;;;;15.82;49.32;96560.25;127800;1101;22753;-79
2021/05/27 06:46:20;;;;;;;3.93;1.00;;;;;;;16.03;50.26;96566.55;127614;1101;23582;-79
2021/05/27 06:48:49;;;;;;;3.15;0.83;;;;;;;16.45;49.67;96563.40;127512;1101;24150;-79
2021/05/27 06:51:17;;;;;;;1.88;0.83;;;;;;;16.84;48.46;96554.39;127532;1101;22853;-79
2021/05/27 06:53:46;;;;;;;1.70;0.68;;;;;;;18.56;48.28;96549.09;127559;1100;24617;-80
2021/05/27 06:56:15;;;;;;;1.55;0.70;;;;;;;19.14;43.19;96552.61;127675;1101;23871;-79
2021/05/27 06:58:44;;;;;;;1.65;0.55;;;;;;;19.95;42.82;96557.09;127715;1101;25793;-80
2021/05/27 07:01:13;;;;;;;1.03;0.50;;;;;;;20.81;40.30;96552.19;127661;1101;27590;-80
2021/05/27 07:03:41;;;;;;;1.50;0.60;;;;;;;20.81;40.52;96554.10;127668;1100;23316;-80
2021/05/27 07:06:10;;;;;;;0.95;0.58;;;;;;;20.92;38.72;96565.95;127655;1101;22752;-80
2021/05/27 07:08:39;;;;;;;0.95;0.50;;;;;;;20.79;39.29;96562.54;127707;1101;22926;-80
2021/05/27 07:11:08;;;;;;;1.23;0.50;;;;;;;20.05;39.74;96559.31;127646;1100;24338;-80
2021/05/27 07:13:37;;;;;;;0.80;0.55;;;;;;;19.28;40.86;96564.63;127636;1101;23401;-80
2021/05/27 07:16:06;;;;;;;1.90;0.63;;;;;;;19.47;41.19;96553.31;127595;1101;22828;-78
2021/05/27 07:18:35;;;;;;;1.75;0.58;;;;;;;20.60;41.23;96557.81;127567;1101;24245;-79
2021/05/27 07:21:04;;;;;;;2.43;0.80;;;;;;;21.50;40.47;96547.38;127544;1101;23657;-79
2021/05/27 07:23:33;;;;;;;1.55;0.85;;;;;;;22.03;39.55;96563.98;127540;1100;23481;-80
2021/05/27 07:26:04;;;;;;;1.90;0.80;;;;;;;22.48;38.09;96558.77;127539;1101;28116;-81
2021/05/27 07:28:33;;;;;;;2.48;0.90;;;;;;;22.42;37.85;96554.80;127572;1101;22774;-80
2021/05/27 07:31:03;;;;;;;1.73;0.80;;;;;;;22.17;37.41;96554.30;127533;1101;23745;-79
2021/05/27 07:33:32;;;;;;;2.85;0.60;;;;;;;22.11;36.22;96555.72;127658;1101;25023;-80
2021/05/27 07:36:01;;;;;;;1.98;0.60;;;;;;;22.26;36.81;96562.20;127543;1100;25427;-80
2021/05/27 07:38:30;;;;;;;1.80;1.20;;;;;;;22.05;36.72;96557.12;127708;1096;26757;-81
2021/05/27 07:41:00;;;;;;;1.60;0.80;;;;;;;21.70;37.87;96554.41;127583;1096;26040;-79
2021/05/27 07:43:28;;;;;;;1.08;0.73;;;;;;;21.33;37.82;96557.39;127596;1101;24351;-80
2021/05/27 07:45:57;;;;;;;1.28;0.60;;;;;;;21.45;37.31;96551.13;127654;1101;25267;-80
2021/05/27 07:48:26;;;;;;;1.25;0.78;;;;;;;21.92;38.62;96553.72;127621;1096;26247;-80
2021/05/27 07:50:54;;;;;;;1.45;0.80;;;;;;;22.45;38.99;96550.60;127569;1096;26287;-80
2021/05/27 07:53:23;;;;;;;2.53;0.98;;;;;;;22.93;37.21;96549.20;127580;1101;25280;-80
2021/05/27 07:55:52;;;;;;;2.58;0.75;;;;;;;23.12;37.11;96561.91;127566;1101;23314;-79
2021/05/27 07:58:20;;;;;;;2.25;0.80;;;;;;;23.34;37.97;96560.33;127517;1095;26200;-80
2021/05/27 08:00:49;;;;;;;1.67;0.57;;;;;;;23.07;37.84;96578.41;127659;1101;29974;-79
2021/05/27 08:03:20;;;;;;;0.63;0.47;;;;;;;23.29;37.34;96572.23;127540;1101;24174;-80
2021/05/27 08:05:50;;;;;;;3.80;0.70;;;;;;;23.87;37.93;96572.00;127587;1096;22980;-80
2021/05/27 08:08:20;;;;;;;0.63;0.40;;;;;;;25.00;34.09;96561.02;127587;1101;23514;-80
2021/05/27 08:10:50;;;;;;;0.80;0.60;;;;;;;24.07;34.96;96572.68;127570;1100;22775;-79
2021/05/27 08:13:20;;;;;;;0.35;0.33;;;;;;;24.80;34.90;96565.06;127562;1101;22777;-80
2021/05/27 08:15:50;;;;;;;1.20;0.50;;;;;;;25.68;36.22;96561.59;127585;1100;24256;-80
2021/05/27 08:18:18;;;;;;;;;;;;;;;26.25;34.03;96565.45;127584;1101;26796;-80
2021/05/27 08:20:48;;;;;;;0.65;0.40;;;;;;;25.36;31.74;96572.21;127574;1101;25338;-80
2021/05/27 08:23:18;;;;;;;0.85;0.40;;;;;;;24.21;32.19;96570.16;127594;1100;28393;-79
2021/05/27 08:25:48;;;;;;;0.98;0.30;;;;;;;24.10;33.28;96571.94;127705;1101;22756;-79
2021/05/27 08:28:18;;;;;;;0.53;0.40;;;;;;;24.16;31.94;96569.68;127751;1101;22750;-79
2021/05/27 08:30:48;;;;;;;1.67;0.40;;;;;;;23.82;33.35;96569.62;127677;1101;24033;-80
2021/05/27 08:33:18;;;;;;;0.88;0.40;;;;;;;23.54;33.56;96567.23;127634;1101;23555;-80
2021/05/27 08:35:48;;;;;;;1.08;0.40;;;;;;;23.24;33.20;96579.89;127842;1101;22833;-79
2021/05/27 08:38:18;;;;;;;2.60;0.43;;;;;;;22.84;34.71;96581.11;127782;1100;25613;-79
2021/05/27 08:40:48;;;;;;;0.95;0.53;;;;;;;22.73;34.14;96574.69;127639;1100;22750;-80
2021/05/27 08:43:21;;;;;;;0.75;0.50;;;;;;;23.14;33.82;96577.77;127640;1099;25696;-79
2021/05/27 08:45:52;;;;;;;1.23;0.55;;;;;;;23.05;33.58;96576.07;127553;1100;24236;-78
2021/05/27 08:48:22;;;;;;;1.28;0.50;;;;;;;23.21;34.17;96578.66;127553;1100;24612;-80
2021/05/27 08:50:53;;;;;;;0.70;0.58;;;;;;;23.68;34.48;96575.60;127553;1101;24277;-80
2021/05/27 08:53:23;;;;;;;2.35;0.80;;;;;;;24.71;34.23;96583.55;127582;1100;24992;-79
2021/05/27 08:55:53;;;;;;;2.05;0.58;;;;;;;24.90;33.39;96575.22;127551;1100;22825;-79
2021/05/27 08:58:23;;;;;;;1.58;0.60;;;;;;;25.02;32.77;96579.64;127573;1100;23204;-79
2021/05/27 09:00:55;;;;;;;1.33;0.60;;;;;;;25.25;33.36;96577.54;127563;1100;22757;-80
2021/05/27 09:03:38;;;;;;;1.55;0.60;;;;;;;25.42;31.54;96582.33;127558;1100;29407;-80
2021/05/27 09:06:09;;;;;;;1.50;0.70;;;;;;;24.93;32.16;96576.43;127537;1101;25916;-79
2021/05/27 09:08:39;;;;;;;3.60;0.90;;;;;;;25.10;34.17;96581.28;127568;1101;28020;-79
2021/05/27 09:11:10;;;;;;;1.35;0.80;;;;;;;26.15;32.68;96573.54;127676;1100;22661;-80
2021/05/27 09:13:55;;;;;;;1.08;0.50;;;;;;;26.47;32.80;96573.74;127554;1101;24037;-79
2021/05/27 09:16:26;;;;;;;3.13;0.73;;;;;;;27.97;32.61;96577.44;127580;1101;23477;-80
2021/05/27 09:18:56;;;;;;;1.13;0.60;;;;;;;27.37;30.76;96580.95;127694;1101;24907;-80
2021/05/27 09:21:37;;;;;;;1.05;0.60;;;;;;;26.88;32.97;96582.39;127574;1101;24400;-79
2021/05/27 09:24:08;;;;;;;2.63;0.55;;;;;;;26.77;31.30;96578.89;127580;1101;22841;-79
2021/05/27 09:26:52;;;;;;;0.95;0.60;;;;;;;26.78;31.57;96578.50;127574;1100;23584;-78
2021/05/27 09:29:23;;;;;;;1.30;0.60;;;;;;;25.76;32.85;96574.11;127623;1101;24233;-79
2021/05/27 09:32:01;;;;;;;2.65;0.70;;;;;;;25.35;32.00;96578.80;127601;1100;32276;-79
2021/05/27 09:34:46;;;;;;;1.73;0.60;;;;;;;24.73;32.17;96579.31;127579;1101;25349;-78
2021/05/27 09:37:26;;;;;;;2.70;0.80;;;;;;;23.78;33.08;96579.59;127592;1100;22857;-78
2021/05/27 09:39:58;;;;;;;0.93;0.65;;;;;;;23.43;33.85;96579.81;127699;1100;23819;-78
2021/05/27 09:42:29;;;;;;;0.88;0.50;;;;;;;22.74;35.65;96587.84;127587;1101;24403;-78
2021/05/27 09:45:16;;;;;;;0.93;0.70;;;;;;;22.58;36.55;96584.44;127574;1101;22874;-78
2021/05/27 09:47:46;;;;;;;3.55;0.90;;;;;;;23.15;36.07;96584.74;127576;1101;29673;-79
2021/05/27 09:50:16;;;;;;;1.35;0.73;;;;;;;22.85;35.42;96587.30;127607;1101;23005;-78
2021/05/27 09:52:46;;;;;;;;;;;;;;;22.32;36.62;96587.77;127649;1101;23121;-79
2021/05/27 09:55:17;;;;;;;1.48;0.60;;;;;;;21.69;36.91;96587.92;127589;1101;23135;-79
2021/05/27 09:57:49;;;;;;;1.80;0.90;;;;;;;21.05;38.60;96594.40;127615;1100;27140;-80
2021/05/27 10:00:28;;;;;;;2.90;0.68;;;;;;;20.35;40.44;96602.08;127701;1101;22790;-79
2021/05/27 10:02:58;;;;;;;1.53;0.70;;;;;;;20.12;40.62;96605.27;127570;1097;23038;-79
2021/05/27 10:05:28;;;;;;;1.95;0.88;;;;;;;20.08;41.37;96598.22;127540;1101;24952;-79
2021/05/27 10:07:58;;;;;;;1.83;1.00;;;;;;;20.07;42.04;96593.96;127559;1100;22880;-79
2021/05/27 10:10:28;;;;;;;1.78;0.80;;;;;;;20.19;42.83;96603.92;127560;1100;22749;-79
2021/05/27 10:12:58;;;;;;;1.13;0.80;;;;;;;20.46;43.69;96600.52;127613;1100;23053;-79
2021/05/27 10:15:29;;;;;;;4.40;1.00;;;;;;;20.25;42.69;96597.95;127563;1101;22815;-79
2021/05/27 10:18:03;;;;;;;5.68;1.00;;;;;;;19.63;44.30;96590.31;127608;1101;22751;-80
2021/05/27 10:20:34;;;;;;;2.55;0.83;;;;;;;19.53;44.55;96603.05;127608;1101;24406;-78
2021/05/27 10:23:06;;;;;;;1.33;0.68;;;;;;;19.73;44.98;96601.41;127548;1101;25606;-79
2021/05/27 10:25:36;;;;;;;1.85;0.70;;;;;;;20.08;45.25;96599.00;127612;1100;22774;-81
2021/05/27 10:28:11;;;;;;;3.10;0.90;;;;;;;20.10;43.93;96604.83;127585;1101;22746;-80
2021/05/27 10:30:43;;;;;;;1.63;0.70;;;;;;;20.15;45.34;96598.44;127604;1100;24351;-79
2021/05/27 10:33:19;;;;;;;1.05;0.68;;;;;;;20.50;45.54;96598.70;127598;1094;26216;-80
2021/05/27 10:35:53;;;;;;;6.13;1.30;;;;;;;20.51;44.25;96594.88;127587;1096;27101;-79
2021/05/27 10:38:47;;;;;;;1.15;0.93;;;;;;;20.30;44.80;96599.64;127534;1096;25436;-79
2021/05/27 10:41:20;;;;;;;2.80;0.80;;;;;;;20.16;44.92;96594.63;127642;1100;23366;-79
2021/05/27 10:44:14;;;;;;;1.80;0.83;;;;;;;20.07;45.31;96602.03;127553;1101;22847;-78
2021/05/27 10:47:17;;;;;;;1.45;1.08;;;;;;;19.84;44.96;96604.41;127732;1100;22769;-79
2021/05/27 10:49:56;;;;;;;1.48;0.70;;;;;;;19.51;45.22;96597.22;127640;1101;22819;-79
2021/05/27 10:52:44;;;;;;;2.73;0.75;;;;;;;19.30;45.58;96604.62;127669;1101;22781;-80
2021/05/27 10:55:57;;;;;;;1.93;0.90;;;;;;;19.42;46.04;96603.81;127537;1096;26643;-80
2021/05/27 10:59:11;;;;;;;2.25;0.80;;;;;;;19.63;46.54;96603.77;127561;1101;24442;-80
2021/05/27 11:02:02;;;;;;;1.23;0.70;;;;;;;19.75;46.19;96606.45;127555;1100;22755;-79
2021/05/27 11:04:42;;;;;;;2.58;0.83;;;;;;;19.89;46.47;96609.58;127651;1096;22754;-79
2021/05/27 11:07:24;;;;;;;2.03;0.63;;;;;;;19.95;46.66;96602.83;127596;1100;23464;-79
2021/05/27 11:09:59;;;;;;;2.50;0.60;;;;;;;20.04;46.68;96608.89;127499;1100;23338;-79
2021/05/27 11:12:34;;;;;;;1.97;0.90;;;;;;;19.85;45.68;96606.79;127552;1101;22824;-79
2021/05/27 11:15:16;;;;;;;1.45;0.80;;;;;;;19.74;45.89;96607.58;127624;1100;24982;-79
2021/05/27 11:18:09;;;;;;;2.45;0.95;;;;;;;19.89;46.59;96606.89;127623;1100;22906;-79
2021/05/27 11:20:38;;;;;;;3.10;0.80;;;;;;;20.10;46.42;96612.91;127500;1100;24848;-79
2021/05/27 11:23:18;;;;;;;2.85;0.78;;;;;;;20.34;46.41;96611.29;127564;1101;22744;-79
2021/05/27 11:25:48;;;;;;;2.30;0.70;;;;;;;20.43;46.17;96609.28;127792;1100;22744;-79
2021/05/27 11:28:29;;;;;;;2.98;0.70;;;;;;;20.48;46.92;96606.34;127578;1100;22749;-79
2021/05/27 11:30:59;;;;;;;1.93;0.80;;;;;;;20.73;46.90;96607.03;127540;1101;23768;-79
2021/05/27 11:33:35;;;;;;;;;;;;;;;20.93;46.43;96610.64;127502;1094;26213;-79
2021/05/27 11:36:23;;;;;;;2.65;0.90;;;;;;;20.85;45.22;96608.89;127552;1100;21464;-79
2021/05/27 11:38:55;;;;;;;2.55;0.90;;;;;;;20.59;44.63;96610.12;127537;1100;23143;-79
2021/05/27 11:41:25;;;;;;;2.10;0.95;;;;;;;20.58;45.69;96605.86;127519;1100;24392;-78
2021/05/27 11:43:59;;;;;;;1.45;0.80;;;;;;;20.81;45.98;96608.00;127507;1101;40223;-78
2021/05/27 11:46:31;;;;;;;0.95;0.80;;;;;;;20.86;44.95;96613.94;127570;1101;22819;-79
2021/05/27 11:49:01;;;;;;;1.23;1.10;;;;;;;20.20;44.95;96608.97;127585;1100;23256;-79
2021/05/27 11:51:40;;;;;;;2.27;0.90;;;;;;;20.06;47.84;96603.94;127553;1100;24005;-79
2021/05/27 11:54:11;;;;;;;1.75;0.80;;;;;;;20.15;46.57;96604.61;127542;1100;45394;-79